createdAt,value
2023-04-24T00:02:20.043Z,15.91
2023-04-24T00:04:50.152Z,15.73
2023-04-24T00:07:21.273Z,15.65
2023-04-24T00:09:51.660Z,15.71
2023-04-24T00:12:21.119Z,15.77
2023-04-24T00:14:50.592Z,15.51
2023-04-24T00:17:23.545Z,15.46
2023-04-24T00:19:59.485Z,15.66
2023-04-24T00:22:29.217Z,15.65
2023-04-24T00:24:59.254Z,15.79
2023-04-24T00:27:28.682Z,15.87
2023-04-24T00:30:01.133Z,15.96
2023-04-24T00:32:33.823Z,15.94
2023-04-24T00:35:03.179Z,15.93
2023-04-24T00:37:32.545Z,15.78
2023-04-24T00:40:02.241Z,15.78
2023-04-24T00:42:31.663Z,15.58
2023-04-24T00:45:04.693Z,15.84
2023-04-24T00:47:37.078Z,15.75
2023-04-24T00:50:07.451Z,15.96
2023-04-24T00:52:37.427Z,16.03
2023-04-24T00:55:08.181Z,16.02
2023-04-24T00:57:37.934Z,15.86
2023-04-24T01:00:11.564Z,16.06
2023-04-24T01:02:46.503Z,16.20
2023-04-24T01:05:16.696Z,16.12
2023-04-24T01:07:50.183Z,16.26
2023-04-24T01:10:21.692Z,16.17
2023-04-24T01:12:51.041Z,16.04
2023-04-24T01:15:21.051Z,16.07
2023-04-24T01:17:53.106Z,15.94
2023-04-24T01:20:22.965Z,15.58
2023-04-24T01:22:55.124Z,15.69
2023-04-24T01:25:24.433Z,15.54
2023-04-24T01:27:53.979Z,15.64
2023-04-24T01:30:23.354Z,15.53
2023-04-24T01:32:52.921Z,15.89
2023-04-24T01:35:22.530Z,15.65
2023-04-24T01:37:51.886Z,15.68
2023-04-24T01:40:23.956Z,15.48
2023-04-24T01:42:53.375Z,15.60
2023-04-24T01:45:22.759Z,15.59
2023-04-24T01:47:53.895Z,15.53
2023-04-24T01:50:23.238Z,15.48
2023-04-24T01:52:52.665Z,15.55
2023-04-24T01:55:24.817Z,15.37
2023-04-24T01:57:56.780Z,15.46
2023-04-24T02:00:26.627Z,15.58
2023-04-24T02:02:56.065Z,15.60
2023-04-24T02:05:25.738Z,15.66
2023-04-24T02:07:55.125Z,15.57
2023-04-24T02:10:27.271Z,15.55
2023-04-24T02:12:56.822Z,15.64
2023-04-24T02:15:26.164Z,15.76
2023-04-24T02:17:55.612Z,15.55
2023-04-24T02:20:25.186Z,15.70
2023-04-24T02:22:54.531Z,15.80
2023-04-24T02:25:26.913Z,15.84
2023-04-24T02:27:56.277Z,15.80
2023-04-24T02:30:25.782Z,15.89
2023-04-24T02:32:55.199Z,15.66
2023-04-24T02:35:24.612Z,15.62
2023-04-24T02:37:54.056Z,15.77
2023-04-24T02:40:23.463Z,15.81
2023-04-24T02:42:55.370Z,15.93
2023-04-24T02:45:24.782Z,15.37
2023-04-24T02:47:54.218Z,14.97
2023-04-24T02:50:23.717Z,15.26
2023-04-24T02:52:53.091Z,14.94
2023-04-24T02:55:22.684Z,15.07
2023-04-24T02:57:52.029Z,15.08
2023-04-24T03:00:24.568Z,15.04
2023-04-24T03:02:54.485Z,14.97
2023-04-24T03:05:24.003Z,15.03
2023-04-24T03:07:53.776Z,14.93
2023-04-24T03:10:23.715Z,14.65
2023-04-24T03:12:53.211Z,14.67
2023-04-24T03:15:25.334Z,14.56
2023-04-24T03:17:56.648Z,14.71
2023-04-24T03:20:26.882Z,14.58
2023-04-24T03:22:57.261Z,14.57
2023-04-24T03:25:26.882Z,14.76
2023-04-24T03:27:56.216Z,14.66
2023-04-24T03:30:28.122Z,14.64
2023-04-24T03:32:57.565Z,14.86
2023-04-24T03:35:27.393Z,14.88
2023-04-24T03:37:56.786Z,14.49
2023-04-24T03:40:26.202Z,14.31
2023-04-24T03:42:55.811Z,14.46
2023-04-24T03:45:27.961Z,14.27
2023-04-24T03:47:57.378Z,14.39
2023-04-24T03:50:27.781Z,14.48
2023-04-24T03:52:57.147Z,14.37
2023-04-24T03:55:26.476Z,14.39
2023-04-24T03:57:55.894Z,14.22
2023-04-24T04:00:28.717Z,14.15
2023-04-24T04:02:58.259Z,14.43
2023-04-24T04:05:28.065Z,14.47
2023-04-24T04:07:57.552Z,14.44
2023-04-24T04:10:27.180Z,14.39
2023-04-24T04:12:56.533Z,14.19
2023-04-24T04:15:28.475Z,14.16
2023-04-24T04:17:57.809Z,14.39
2023-04-24T04:20:27.526Z,14.22
2023-04-24T04:22:56.924Z,14.07
2023-04-24T04:25:26.274Z,14.07
2023-04-24T04:27:56.062Z,14.08
2023-04-24T04:30:30.526Z,14.12
2023-04-24T04:33:00.342Z,14.21
2023-04-24T04:35:29.898Z,14.36
2023-04-24T04:38:00.053Z,14.41
2023-04-24T04:40:29.710Z,14.42
2023-04-24T04:42:59.369Z,14.45
2023-04-24T04:45:32.018Z,14.13
2023-04-24T04:48:01.850Z,14.24
2023-04-24T04:50:31.721Z,14.07
2023-04-24T04:53:01.082Z,14.09
2023-04-24T04:55:30.475Z,14.03
2023-04-24T04:58:03.256Z,14.43
2023-04-24T05:00:36.927Z,14.29
2023-04-24T05:03:19.811Z,14.21
2023-04-24T05:05:50.513Z,14.31
2023-04-24T05:08:26.989Z,14.17
2023-04-24T05:10:57.332Z,13.98
2023-04-24T05:13:38.081Z,13.95
2023-04-24T05:16:11.690Z,13.76
2023-04-24T05:18:41.241Z,13.88
2023-04-24T05:21:10.728Z,13.56
2023-04-24T05:23:40.092Z,13.46
2023-04-24T05:26:09.549Z,13.50
2023-04-24T05:28:39.006Z,13.60
2023-04-24T05:31:11.075Z,13.50
2023-04-24T05:33:40.591Z,13.54
2023-04-24T05:36:10.592Z,13.55
2023-04-24T05:38:39.949Z,13.35
2023-04-24T05:41:09.352Z,13.40
2023-04-24T05:43:38.713Z,13.51
2023-04-24T05:46:10.803Z,13.50
2023-04-24T05:48:40.149Z,13.63
2023-04-24T05:51:09.590Z,13.71
2023-04-24T05:53:38.934Z,13.66
2023-04-24T05:56:08.805Z,13.58
2023-04-24T05:58:38.949Z,13.79
2023-04-24T06:01:11.137Z,13.79
2023-04-24T06:03:42.289Z,13.98
2023-04-24T06:06:12.099Z,13.96
2023-04-24T06:08:41.518Z,13.86
2023-04-24T06:11:10.930Z,13.89
2023-04-24T06:13:40.531Z,13.87
2023-04-24T06:16:12.792Z,13.98
2023-04-24T06:18:42.139Z,13.84
2023-04-24T06:21:11.699Z,13.70
2023-04-24T06:23:41.036Z,13.87
2023-04-24T06:26:10.433Z,13.89
2023-04-24T06:28:39.740Z,14.05
2023-04-24T06:31:09.132Z,14.05
2023-04-24T06:33:41.358Z,14.02
2023-04-24T06:36:11.680Z,14.17
2023-04-24T06:38:41.164Z,14.20
2023-04-24T06:41:10.534Z,14.30
2023-04-24T06:43:39.929Z,14.23
2023-04-24T06:46:09.290Z,14.23
2023-04-24T06:48:41.548Z,14.20
2023-04-24T06:51:11.162Z,14.25
2023-04-24T06:53:40.619Z,14.17
2023-04-24T06:56:10.202Z,14.47
2023-04-24T06:58:39.683Z,14.15
2023-04-24T07:01:09.115Z,14.40
2023-04-24T07:03:41.260Z,14.35
2023-04-24T07:06:12.291Z,14.31
2023-04-24T07:08:43.017Z,14.45
2023-04-24T07:11:12.396Z,14.45
2023-04-24T07:13:43.079Z,14.50
2023-04-24T07:16:12.775Z,14.57
2023-04-24T07:18:44.761Z,14.55
2023-04-24T07:21:14.115Z,14.55
2023-04-24T07:23:43.605Z,14.70
2023-04-24T07:26:13.105Z,14.86
2023-04-24T07:28:42.431Z,14.84
2023-04-24T07:31:12.281Z,14.89
2023-04-24T07:33:44.343Z,14.93
2023-04-24T07:36:17.222Z,14.63
2023-04-24T07:38:46.821Z,14.69
2023-04-24T07:41:16.234Z,14.75
2023-04-24T07:43:45.871Z,14.89
2023-04-24T07:46:15.416Z,14.90
2023-04-24T07:48:55.824Z,15.06
2023-04-24T07:51:39.351Z,15.17
2023-04-24T07:54:09.527Z,15.45
2023-04-24T07:56:40.469Z,15.46
2023-04-24T07:59:10.857Z,15.57
2023-04-24T08:01:40.297Z,15.40
2023-04-24T08:04:12.460Z,15.43
2023-04-24T08:06:42.116Z,15.40
2023-04-24T08:09:11.846Z,15.42
2023-04-24T08:11:41.253Z,15.43
2023-04-24T08:14:10.861Z,15.34
2023-04-24T08:16:40.453Z,15.46
2023-04-24T08:19:12.784Z,15.61
2023-04-24T08:21:42.112Z,15.34
2023-04-24T08:24:11.426Z,15.46
2023-04-24T08:26:40.996Z,15.53
2023-04-24T08:29:10.495Z,15.88
2023-04-24T08:31:40.002Z,16.03
2023-04-24T08:34:13.026Z,16.20
2023-04-24T08:36:47.168Z,15.89
2023-04-24T08:39:18.148Z,15.92
2023-04-24T08:41:49.087Z,15.82
2023-04-24T08:44:19.052Z,15.82
2023-04-24T08:46:51.770Z,15.92
2023-04-24T08:49:23.908Z,15.75
2023-04-24T08:51:56.047Z,15.79
2023-04-24T08:54:25.770Z,15.87
2023-04-24T08:56:57.790Z,16.03
2023-04-24T08:59:27.279Z,15.98
2023-04-24T09:01:58.561Z,16.00
2023-04-24T09:04:33.118Z,15.82
2023-04-24T09:07:03.393Z,15.82
2023-04-24T09:09:34.206Z,15.59
2023-04-24T09:12:04.922Z,15.46
2023-04-24T09:14:37.373Z,15.61
2023-04-24T09:17:07.379Z,15.59
2023-04-24T09:19:39.520Z,15.68
2023-04-24T09:22:09.778Z,15.66
2023-04-24T09:24:39.253Z,15.65
2023-04-24T09:27:11.178Z,15.81
2023-04-24T09:29:41.171Z,15.59
2023-04-24T09:32:26.207Z,15.81
2023-04-24T09:35:14.966Z,15.57
2023-04-24T09:37:46.033Z,15.58
2023-04-24T09:40:20.192Z,15.92
2023-04-24T09:42:50.570Z,15.72
2023-04-24T09:45:20.610Z,15.65
2023-04-24T09:47:50.014Z,15.55
2023-04-24T09:50:22.455Z,15.62
2023-04-24T09:53:01.181Z,15.49
2023-04-24T09:55:30.908Z,15.60
2023-04-24T09:58:06.117Z,15.51
2023-04-24T10:00:37.126Z,15.77
2023-04-24T10:03:08.158Z,15.64
2023-04-24T10:05:42.282Z,15.69
2023-04-24T10:14:48.693Z,15.60
2023-04-24T10:17:18.814Z,15.72
2023-04-24T10:19:49.706Z,15.73
2023-04-24T10:22:21.838Z,15.90
2023-04-24T10:24:56.894Z,16.02
2023-04-24T10:27:27.238Z,15.91
2023-04-24T10:29:57.230Z,15.72
2023-04-24T10:32:27.097Z,15.45
2023-04-24T10:34:57.818Z,15.48
2023-04-24T10:37:30.984Z,15.77
2023-04-24T10:40:00.394Z,15.50
2023-04-24T10:42:31.591Z,15.77
2023-04-24T10:45:03.221Z,15.68
2023-04-24T10:47:32.929Z,15.74
2023-04-24T10:50:04.120Z,15.79
2023-04-24T10:52:56.079Z,15.91
2023-04-24T10:55:44.741Z,15.93
2023-04-24T10:58:15.934Z,16.02
2023-04-24T11:00:46.088Z,15.96
2023-04-24T11:03:28.409Z,16.19
2023-04-24T11:06:03.710Z,16.23
2023-04-24T11:08:40.808Z,16.08
2023-04-24T11:11:15.286Z,16.12
2023-04-24T11:14:08.050Z,16.05
2023-04-24T11:16:39.785Z,16.08
2023-04-24T11:19:10.960Z,16.05
2023-04-24T11:21:45.674Z,16.46
2023-04-24T11:24:52.879Z,16.19
2023-04-24T11:27:24.215Z,16.36
2023-04-24T11:30:04.428Z,16.60
2023-04-24T11:32:38.048Z,16.56
2023-04-24T11:35:09.748Z,16.50
2023-04-24T11:37:41.598Z,16.47
2023-04-24T11:40:16.476Z,16.44
2023-04-24T11:42:48.186Z,16.43
2023-04-24T11:45:19.139Z,16.56
2023-04-24T11:47:49.015Z,16.63
2023-04-24T11:50:19.846Z,16.29
2023-04-24T11:52:51.356Z,16.26
2023-04-24T11:55:30.965Z,16.07
2023-04-24T11:58:02.683Z,16.23
2023-04-24T12:00:35.378Z,16.17
2023-04-24T12:03:10.245Z,16.31
2023-04-24T12:05:40.139Z,16.03
2023-04-24T12:08:10.044Z,16.02
2023-04-24T12:10:42.445Z,16.05
2023-04-24T12:13:13.793Z,16.02
2023-04-24T12:15:44.666Z,16.09
2023-04-24T12:18:18.032Z,15.91
2023-04-24T12:20:47.479Z,15.95
2023-04-24T12:23:16.827Z,15.87
2023-04-24T12:25:48.778Z,15.86
2023-04-24T12:28:18.098Z,15.87
2023-04-24T12:30:51.448Z,16.03
2023-04-24T12:33:21.969Z,15.87
2023-04-24T12:35:52.330Z,15.91
2023-04-24T12:38:26.967Z,16.11
2023-04-24T12:41:09.155Z,15.84
2023-04-24T12:43:39.335Z,15.82
2023-04-24T12:46:09.058Z,15.71
2023-04-24T12:48:38.473Z,15.64
2023-04-24T12:51:08.443Z,15.69
2023-04-24T12:53:37.788Z,15.48
2023-04-24T12:56:09.841Z,15.45
2023-04-24T12:58:39.167Z,15.42
2023-04-24T13:01:08.629Z,15.51
2023-04-24T13:03:38.348Z,15.32
2023-04-24T13:06:07.892Z,15.21
2023-04-24T13:08:37.191Z,15.44
2023-04-24T13:11:09.272Z,15.37
2023-04-24T13:13:38.583Z,15.35
2023-04-24T13:16:08.629Z,15.27
2023-04-24T13:18:38.033Z,15.34
2023-04-24T13:21:07.410Z,15.30
2023-04-24T13:23:36.824Z,15.36
2023-04-24T13:26:08.740Z,15.33
2023-04-24T13:28:39.400Z,15.49
2023-04-24T13:31:08.820Z,15.43
2023-04-24T13:33:38.145Z,15.59
2023-04-24T13:36:07.550Z,15.32
2023-04-24T13:38:36.894Z,15.40
2023-04-24T13:41:10.018Z,15.42
2023-04-24T13:43:39.557Z,15.39
2023-04-24T13:46:08.868Z,15.41
2023-04-24T13:48:38.639Z,15.54
2023-04-24T13:51:08.089Z,15.39
2023-04-24T13:53:39.491Z,15.29
2023-04-24T13:56:11.569Z,15.30
2023-04-24T13:58:41.030Z,15.25
2023-04-24T14:01:10.563Z,15.16
2023-04-24T14:03:41.196Z,15.16
2023-04-24T14:06:10.847Z,15.13
2023-04-24T14:08:40.185Z,15.12
2023-04-24T14:11:12.989Z,15.20
2023-04-24T14:13:44.890Z,15.36
2023-04-24T14:16:15.300Z,15.35
2023-04-24T14:18:44.712Z,15.18
2023-04-24T14:21:15.065Z,15.16
2023-04-24T14:23:45.465Z,15.08
2023-04-24T14:26:17.818Z,15.24
2023-04-24T14:28:47.176Z,15.13
2023-04-24T14:31:16.524Z,14.96
2023-04-24T14:33:47.079Z,14.96
2023-04-24T14:36:16.692Z,14.93
2023-04-24T14:38:46.197Z,15.06
2023-04-24T14:41:18.214Z,15.00
2023-04-24T14:43:47.883Z,14.81
2023-04-24T14:46:17.440Z,14.87
2023-04-24T14:48:46.916Z,14.85
2023-04-24T14:51:16.241Z,14.67
2023-04-24T14:53:48.044Z,14.69
2023-04-24T14:56:19.986Z,14.91
2023-04-24T14:58:49.385Z,14.53
2023-04-24T15:01:19.049Z,14.39
2023-04-24T15:03:48.659Z,14.34
2023-04-24T15:06:18.363Z,14.38
2023-04-24T15:08:50.109Z,14.36
2023-04-24T15:11:22.453Z,14.36
2023-04-24T15:13:51.869Z,14.50
2023-04-24T15:16:21.622Z,14.74
2023-04-24T15:18:50.996Z,14.71
2023-04-24T15:21:20.498Z,14.67
2023-04-24T15:23:49.943Z,14.34
2023-04-24T15:26:22.223Z,14.53
2023-04-24T15:28:52.731Z,14.59
2023-04-24T15:31:24.086Z,14.56
2023-04-24T15:33:53.544Z,14.73
2023-04-24T15:36:22.952Z,14.30
2023-04-24T15:38:53.393Z,14.62
2023-04-24T15:41:26.098Z,14.52
2023-04-24T15:43:55.730Z,14.37
2023-04-24T15:46:25.198Z,14.66
2023-04-24T15:48:54.613Z,14.27
2023-04-24T15:51:23.946Z,14.41
2023-04-24T15:53:56.135Z,14.20
2023-04-24T15:56:30.279Z,14.28
2023-04-24T15:59:00.969Z,13.56
2023-04-24T16:01:31.281Z,13.53
2023-04-24T16:04:00.829Z,13.44
2023-04-24T16:06:30.550Z,13.52
2023-04-24T16:09:01.566Z,13.44
2023-04-24T16:11:36.572Z,13.25
2023-04-24T16:14:05.918Z,13.38
2023-04-24T16:16:35.981Z,13.37
2023-04-24T16:19:06.966Z,13.17
2023-04-24T16:21:36.288Z,12.95
2023-04-24T16:24:05.649Z,13.10
2023-04-24T16:26:37.602Z,13.19
2023-04-24T16:29:07.051Z,12.99
2023-04-24T16:31:36.647Z,12.93
2023-04-24T16:34:06.033Z,12.68
2023-04-24T16:36:35.982Z,12.85
2023-04-24T16:39:05.640Z,12.90
2023-04-24T16:41:37.523Z,12.93
2023-04-24T16:44:07.132Z,12.93
2023-04-24T16:46:36.991Z,12.87
2023-04-24T16:49:06.378Z,12.89
2023-04-24T16:51:37.293Z,12.79
2023-04-24T16:54:06.904Z,12.80
2023-04-24T16:56:39.261Z,12.79
2023-04-24T16:59:08.735Z,12.66
2023-04-24T17:01:38.245Z,12.78
2023-04-24T17:04:07.835Z,12.60
2023-04-24T17:06:38.009Z,12.91
2023-04-24T17:09:07.433Z,12.87
2023-04-24T17:11:39.370Z,12.40
2023-04-24T17:14:08.908Z,12.80
2023-04-24T17:16:40.444Z,12.78
2023-04-24T17:19:11.353Z,12.91
2023-04-24T17:21:40.711Z,12.74
2023-04-24T17:24:10.571Z,12.75
2023-04-24T17:26:42.480Z,12.98
2023-04-24T17:29:12.894Z,12.89
2023-04-24T17:31:43.963Z,13.02
2023-04-24T17:34:13.323Z,12.65
2023-04-24T17:36:42.683Z,12.90
2023-04-24T17:39:13.137Z,12.88
2023-04-24T17:41:45.455Z,12.69
2023-04-24T17:44:14.753Z,12.77
2023-04-24T17:46:44.288Z,12.89
2023-04-24T17:49:14.162Z,13.03
2023-04-24T17:51:43.662Z,12.89
2023-04-24T17:54:13.005Z,12.66
2023-04-24T17:56:45.026Z,12.90
2023-04-24T17:59:14.454Z,12.97
2023-04-24T18:01:43.794Z,12.93
2023-04-24T18:04:13.478Z,12.88
2023-04-24T18:06:42.906Z,12.99
2023-04-24T18:09:12.389Z,13.02
2023-04-24T18:11:43.158Z,13.02
2023-04-24T18:14:15.139Z,13.11
2023-04-24T18:16:45.095Z,12.89
2023-04-24T18:19:14.411Z,12.80
2023-04-24T18:21:43.905Z,12.78
2023-04-24T18:24:13.436Z,12.94
2023-04-24T18:26:42.786Z,12.99
2023-04-24T18:29:14.745Z,13.03
2023-04-24T18:31:44.167Z,12.94
2023-04-24T18:34:13.576Z,12.74
2023-04-24T18:36:42.952Z,12.85
2023-04-24T18:39:13.349Z,12.97
2023-04-24T18:41:42.962Z,13.02
2023-04-24T18:44:15.456Z,12.67
2023-04-24T18:46:45.349Z,12.80
2023-04-24T18:49:14.881Z,12.75
2023-04-24T18:51:53.975Z,12.93
2023-04-24T18:54:24.030Z,12.98
2023-04-24T18:56:55.228Z,12.97
2023-04-24T18:59:27.834Z,12.87
2023-04-24T19:01:57.279Z,12.83
2023-04-24T19:04:26.696Z,12.74
2023-04-24T19:06:56.247Z,12.80
2023-04-24T19:09:25.609Z,12.60
2023-04-24T19:11:54.990Z,12.65
2023-04-24T19:14:27.016Z,12.49
2023-04-24T19:16:56.683Z,12.61
2023-04-24T19:19:28.335Z,12.59
2023-04-24T19:21:57.726Z,12.47
2023-04-24T19:24:29.215Z,12.58
2023-04-24T19:26:58.755Z,12.67
2023-04-24T19:29:30.832Z,12.59
2023-04-24T19:32:00.409Z,12.69
2023-04-24T19:34:30.857Z,12.63
2023-04-24T19:37:00.248Z,12.49
2023-04-24T19:39:32.482Z,12.69
2023-04-24T19:42:04.105Z,12.58
2023-04-24T19:44:37.912Z,12.70
2023-04-24T19:47:07.473Z,12.51
2023-04-24T19:49:36.889Z,12.58
2023-04-24T19:52:06.573Z,12.45
2023-04-24T19:54:36.069Z,12.55
2023-04-24T19:57:05.776Z,12.47
2023-04-24T19:59:37.806Z,12.44
2023-04-24T20:02:07.170Z,12.46
2023-04-24T20:04:36.724Z,12.56
2023-04-24T20:07:06.268Z,12.54
2023-04-24T20:09:35.637Z,12.59
2023-04-24T20:12:05.060Z,12.28
2023-04-24T20:14:36.990Z,12.52
2023-04-24T20:17:06.352Z,12.40
2023-04-24T20:19:35.724Z,12.43
2023-04-24T20:22:05.055Z,12.29
2023-04-24T20:24:37.039Z,12.35
2023-04-24T20:27:06.667Z,12.51
2023-04-24T20:29:38.609Z,12.38
2023-04-24T20:32:08.294Z,12.44
2023-04-24T20:34:37.700Z,12.24
2023-04-24T20:37:07.290Z,12.30
2023-04-24T20:39:37.097Z,12.37
2023-04-24T20:42:07.776Z,12.36
2023-04-24T20:44:40.145Z,12.17
2023-04-24T20:47:09.879Z,12.46
2023-04-24T20:49:39.257Z,12.04
2023-04-24T20:52:09.187Z,12.26
2023-04-24T20:54:38.535Z,12.37
2023-04-24T20:57:07.883Z,12.52
2023-04-24T20:59:39.824Z,12.17
2023-04-24T21:02:09.667Z,12.48
2023-04-24T21:04:40.188Z,12.32
2023-04-24T21:07:10.378Z,12.17
2023-04-24T21:09:40.012Z,12.48
2023-04-24T21:12:10.205Z,12.51
2023-04-24T21:14:42.119Z,12.32
2023-04-24T21:17:11.572Z,12.34
2023-04-24T21:19:40.929Z,12.37
2023-04-24T21:22:10.332Z,12.18
2023-04-24T21:24:40.002Z,12.21
2023-04-24T21:27:09.976Z,12.48
2023-04-24T21:29:42.070Z,12.39
2023-04-24T21:32:11.654Z,12.40
2023-04-24T21:34:41.053Z,12.32
2023-04-24T21:37:11.322Z,12.37
2023-04-24T21:39:40.628Z,12.24
2023-04-24T21:42:10.029Z,12.06
2023-04-24T21:44:42.016Z,12.18
2023-04-24T21:47:11.600Z,12.35
2023-04-24T21:49:42.404Z,12.32
2023-04-24T21:52:11.845Z,12.18
2023-04-24T21:54:41.257Z,12.25
2023-04-24T21:57:10.589Z,12.23
2023-04-24T21:59:42.688Z,12.24
2023-04-24T22:02:12.266Z,12.21
2023-04-24T22:04:42.202Z,12.23
2023-04-24T22:07:11.712Z,12.14
2023-04-24T22:09:41.023Z,12.16
2023-04-24T22:12:10.431Z,12.39
2023-04-24T22:14:42.312Z,12.23
2023-04-24T22:17:12.396Z,12.20
2023-04-24T22:19:43.590Z,12.26
2023-04-24T22:22:13.096Z,12.16
2023-04-24T22:24:42.437Z,12.01
2023-04-24T22:27:11.926Z,12.14
2023-04-24T22:29:44.058Z,12.26
2023-04-24T22:32:13.414Z,12.22
2023-04-24T22:34:42.826Z,11.95
2023-04-24T22:37:12.176Z,12.17
2023-04-24T22:39:41.538Z,12.32
2023-04-24T22:42:11.096Z,12.14
2023-04-24T22:44:40.832Z,12.19
2023-04-24T22:47:12.861Z,12.23
2023-04-24T22:49:42.180Z,12.21
2023-04-24T22:52:13.736Z,12.20
2023-04-24T22:54:43.890Z,12.26
2023-04-24T22:57:13.220Z,11.97
2023-04-24T22:59:42.672Z,11.99
2023-04-24T23:02:14.723Z,12.10
2023-04-24T23:04:44.142Z,12.13
2023-04-24T23:07:14.332Z,11.99
2023-04-24T23:09:43.641Z,12.10
2023-04-24T23:12:13.045Z,12.12
2023-04-24T23:14:42.424Z,12.00
2023-04-24T23:17:14.357Z,11.84
2023-04-24T23:19:43.683Z,11.98
2023-04-24T23:22:13.159Z,11.77
2023-04-24T23:24:42.713Z,11.88
2023-04-24T23:27:12.048Z,11.83
2023-04-24T23:29:41.374Z,11.83
2023-04-24T23:32:10.751Z,11.93
2023-04-24T23:34:42.734Z,12.01
2023-04-24T23:37:12.096Z,12.05
2023-04-24T23:39:41.475Z,11.98
2023-04-24T23:42:10.888Z,12.03
2023-04-24T23:44:40.315Z,11.96
2023-04-24T23:47:09.656Z,11.87
2023-04-24T23:49:39.285Z,11.96
2023-04-24T23:52:11.162Z,11.84
2023-04-24T23:54:40.684Z,11.99
2023-04-24T23:57:10.001Z,11.68
2023-04-24T23:59:39.328Z,11.85
